Time;durP1;ratioP1;P1;durP2;ratioP2;P2;SDS_P1;SDS_P2;PMS_P1;PMS_P2;Temp;Humidity;BMP_temperature;BMP_pressure;BME280_temperature;BME280_humidity;BME280_pressure;Samples;Min_cycle;Max_cycle;Signal;HPM_P1;HPM_P2
2023/10/14 00:01:13;;;;;;;3.25;0.80;;;13.90;99.90;;;;;;5112651;27;20033;-39
2023/10/14 00:03:45;;;;;;;2.80;1.35;;;13.90;99.90;;;;;;5111318;27;20035;-37
2023/10/14 00:06:12;;;;;;;4.93;0.95;;;13.80;99.90;;;;;;5108980;28;20088;-37
2023/10/14 00:09:16;;;;;;;1.20;0.73;;;13.80;99.90;;;;;;5104795;28;20115;-36
2023/10/14 00:11:35;;;;;;;3.20;0.80;;;13.80;99.90;;;;;;5103220;28;20046;-37
2023/10/14 00:14:15;;;;;;;2.20;0.80;;;13.80;99.90;;;;;;5111883;28;20057;-36
2023/10/14 00:16:51;;;;;;;1.77;1.08;;;13.80;99.90;;;;;;5107209;28;20039;-37
2023/10/14 00:19:18;;;;;;;2.72;1.10;;;13.80;99.90;;;;;;5108686;28;20096;-37
2023/10/14 00:21:45;;;;;;;2.13;1.05;;;13.80;99.90;;;;;;5104301;28;20075;-38
2023/10/14 00:24:16;;;;;;;2.20;1.10;;;13.70;99.90;;;;;;5088063;28;20097;-37
2023/10/14 00:26:47;;;;;;;1.80;1.00;;;13.80;99.90;;;;;;5108504;28;20036;-35
2023/10/14 00:31:50;;;;;;;4.32;1.02;;;13.70;99.90;;;;;;5114370;28;20420;-38
2023/10/14 00:34:25;;;;;;;2.35;1.02;;;13.70;99.90;;;;;;5106833;28;20055;-37
2023/10/14 00:36:53;;;;;;;2.78;1.13;;;13.70;99.90;;;;;;5112545;28;20039;-35
2023/10/14 00:39:27;;;;;;;3.03;1.25;;;13.60;99.90;;;;;;5108402;28;20062;-37
2023/10/14 00:41:53;;;;;;;4.63;1.30;;;13.50;99.90;;;;;;5108033;28;20034;-37
2023/10/14 00:44:24;;;;;;;3.00;1.30;;;13.50;99.90;;;;;;5106624;28;20468;-36
2023/10/14 00:46:51;;;;;;;2.83;1.20;;;13.40;99.90;;;;;;5111056;28;20044;-39
2023/10/14 00:49:22;;;;;;;7.38;1.30;;;13.40;99.90;;;;;;5113561;28;20076;-38
2023/10/14 00:51:58;;;;;;;4.40;1.30;;;13.40;99.90;;;;;;5106622;28;20568;-37
2023/10/14 00:54:46;;;;;;;4.03;1.10;;;13.30;99.90;;;;;;5113118;22;20032;-86
2023/10/14 00:59:49;;;;;;;7.93;1.88;;;13.20;99.90;;;;;;5090043;28;20044;-87
2023/10/14 01:02:14;;;;;;;5.50;1.80;;;13.20;99.90;;;;;;5058076;28;20040;-86
2023/10/14 01:04:48;;;;;;;5.60;1.58;;;13.20;99.90;;;;;;5056735;28;20044;-85
2023/10/14 01:07:13;;;;;;;5.88;1.65;;;13.10;99.90;;;;;;5075549;28;20043;-85
2023/10/14 01:12:26;;;;;;;5.68;1.80;;;13.00;99.90;;;;;;5073303;28;20040;-87
2023/10/14 01:14:53;;;;;;;5.97;1.95;;;13.00;99.90;;;;;;5057373;28;20043;-86
2023/10/14 01:17:26;;;;;;;7.75;1.65;;;13.00;99.90;;;;;;5058093;28;20047;-85
2023/10/14 01:19:52;;;;;;;4.50;1.88;;;13.00;99.90;;;;;;5075364;28;20036;-85
2023/10/14 01:22:19;;;;;;;6.65;1.65;;;13.00;99.90;;;;;;5074893;28;20044;-85
2023/10/14 01:24:44;;;;;;;6.82;1.50;;;12.90;99.90;;;;;;5058588;28;20126;-85
2023/10/14 01:27:13;;;;;;;8.70;1.60;;;13.00;99.90;;;;;;5074789;28;20131;-85
2023/10/14 01:29:39;;;;;;;6.32;1.48;;;13.00;99.90;;;;;;5071957;28;20053;-85
2023/10/14 01:35:12;;;;;;;6.80;1.55;;;12.90;99.90;;;;;;5072944;28;20423;-85
2023/10/14 01:37:39;;;;;;;6.18;1.63;;;12.80;99.90;;;;;;5076744;28;20047;-85
2023/10/14 01:40:24;;;;;;;5.57;1.85;;;12.80;99.90;;;;;;5074226;28;20031;-85
2023/10/14 01:43:15;;;;;;;6.35;1.52;;;12.80;99.90;;;;;;5074678;28;20162;-84
2023/10/14 01:48:25;;;;;;;7.10;1.73;;;12.70;99.90;;;;;;5075901;28;20051;-85
2023/10/14 01:50:55;;;;;;;6.90;1.63;;;12.60;99.90;;;;;;5056965;28;20043;-85
2023/10/14 01:53:36;;;;;;;5.28;1.83;;;12.50;99.90;;;;;;5073891;28;20402;-85
2023/10/14 01:56:02;;;;;;;9.13;2.00;;;12.50;99.90;;;;;;5060295;28;20086;-85
2023/10/14 01:58:36;;;;;;;8.80;2.10;;;12.40;99.90;;;;;;5071798;28;20119;-85
2023/10/14 02:03:48;;;;;;;11.60;2.35;;;12.30;99.90;;;;;;5071196;28;20047;-85
2023/10/14 02:06:18;;;;;;;9.00;2.10;;;12.20;99.90;;;;;;5071921;28;20028;-85
2023/10/14 02:08:45;;;;;;;9.48;2.25;;;12.10;99.90;;;;;;5061269;28;20040;-85
2023/10/14 02:11:11;;;;;;;7.60;2.22;;;12.10;99.90;;;;;;5073401;28;20062;-85
2023/10/14 02:13:36;;;;;;;10.18;1.95;;;12.00;99.90;;;;;;5073967;28;20069;-85
2023/10/14 02:16:08;;;;;;;11.07;2.53;;;12.00;99.90;;;;;;5054225;28;20032;-85
2023/10/14 02:18:37;;;;;;;5.78;1.60;;;11.90;99.90;;;;;;5053393;28;20453;-85
2023/10/14 02:21:05;;;;;;;4.95;2.20;;;11.90;99.90;;;;;;5059294;28;20028;-85
2023/10/14 02:23:45;;;;;;;7.70;2.13;;;11.90;99.90;;;;;;5057640;28;20463;-85
2023/10/14 02:26:12;;;;;;;7.53;1.85;;;11.80;99.90;;;;;;5077792;28;20525;-85
2023/10/14 02:28:41;;;;;;;8.57;2.30;;;11.70;99.90;;;;;;5073558;28;20059;-85
2023/10/14 02:31:16;;;;;;;5.93;2.00;;;11.70;99.90;;;;;;5073033;28;20039;-86
2023/10/14 02:33:45;;;;;;;8.68;1.92;;;11.70;99.90;;;;;;5057173;28;20082;-86
2023/10/14 02:36:15;;;;;;;6.25;1.60;;;11.70;99.90;;;;;;5076051;28;20036;-86
2023/10/14 02:38:53;;;;;;;10.10;2.08;;;11.60;99.90;;;;;;5077115;28;20036;-86
2023/10/14 02:41:26;;;;;;;11.27;2.20;;;11.60;99.90;;;;;;5073651;28;20409;-86
2023/10/14 02:44:01;;;;;;;5.63;1.52;;;11.50;99.90;;;;;;5054858;28;20036;-86
2023/10/14 02:46:27;;;;;;;9.30;1.98;;;11.50;99.90;;;;;;5060045;28;20044;-86
2023/10/14 02:48:54;;;;;;;10.48;1.83;;;11.40;99.90;;;;;;5056630;28;20065;-86
2023/10/14 02:51:39;;;;;;;11.88;2.08;;;11.40;99.90;;;;;;5073054;28;20040;-85
2023/10/14 02:54:14;;;;;;;8.90;2.05;;;11.30;99.90;;;;;;5059191;28;20039;-85
2023/10/14 02:56:55;;;;;;;5.22;1.92;;;11.20;99.90;;;;;;5083606;28;20048;-85
2023/10/14 02:59:29;;;;;;;8.73;1.98;;;11.20;99.90;;;;;;5055330;28;20065;-85
2023/10/14 03:04:49;;;;;;;9.95;1.80;;;11.10;99.90;;;;;;5076800;28;20042;-86
2023/10/14 03:07:28;;;;;;;9.95;2.00;;;11.00;99.90;;;;;;5073258;28;20064;-85
2023/10/14 03:09:58;;;;;;;8.95;2.03;;;10.90;99.90;;;;;;5071658;28;20035;-86
2023/10/14 03:12:25;;;;;;;8.38;2.03;;;10.90;99.90;;;;;;5076105;28;20061;-86
2023/10/14 03:14:55;;;;;;;7.68;1.70;;;10.90;99.90;;;;;;5058912;28;20497;-85
2023/10/14 03:17:41;;;;;;;10.00;2.15;;;10.90;99.90;;;;;;5076285;28;20115;-85
2023/10/14 03:23:23;;;;;;;7.10;1.95;;;10.80;99.90;;;;;;5073638;28;20075;-85
2023/10/14 03:25:50;;;;;;;11.13;2.10;;;10.80;99.90;;;;;;5064487;28;20040;-84
2023/10/14 03:28:19;;;;;;;11.60;2.50;;;10.70;99.90;;;;;;5073026;28;20039;-86
2023/10/14 03:31:00;;;;;;;8.50;2.17;;;10.70;99.90;;;;;;5055415;28;20497;-85
2023/10/14 03:33:32;;;;;;;13.05;2.03;;;10.70;99.90;;;;;;5072611;28;20071;-87
2023/10/14 03:36:05;;;;;;;10.85;2.70;;;10.60;99.90;;;;;;5076505;28;20413;-85
2023/10/14 03:41:03;;;;;;;5.30;1.67;;;10.60;99.90;;;;;;5072500;28;20526;-85
2023/10/14 03:44:15;;;;;;;9.05;2.40;;;10.60;99.90;;;;;;5073092;28;20114;-86
2023/10/14 03:47:04;;;;;;;12.98;2.60;;;10.60;99.90;;;;;;5062363;28;20048;-86
2023/10/14 03:49:25;;;;;;;13.07;2.60;;;10.50;99.90;;;;;;5066622;28;20036;-85
2023/10/14 03:51:56;;;;;;;9.50;2.17;;;10.50;99.90;;;;;;5072210;28;20098;-86
2023/10/14 03:54:30;;;;;;;14.35;2.50;;;10.50;99.90;;;;;;5056203;28;20067;-86
2023/10/14 03:56:57;;;;;;;14.73;2.22;;;10.50;99.90;;;;;;5073073;28;20039;-86
2023/10/14 03:59:24;;;;;;;7.07;1.95;;;10.50;99.90;;;;;;5055360;28;20032;-86
2023/10/14 04:01:57;;;;;;;7.05;1.92;;;10.50;99.90;;;;;;5074208;28;20047;-85
2023/10/14 04:04:24;;;;;;;8.68;2.00;;;10.50;99.90;;;;;;5056465;28;20425;-86
2023/10/14 04:07:12;;;;;;;9.70;2.30;;;10.40;99.90;;;;;;5059309;28;20043;-85
2023/10/14 04:09:40;;;;;;;11.85;2.15;;;10.40;99.90;;;;;;5069971;28;20087;-85
2023/10/14 04:12:12;;;;;;;8.60;2.00;;;10.40;99.90;;;;;;5055796;28;20126;-85
2023/10/14 04:14:39;;;;;;;9.98;2.20;;;10.40;99.90;;;;;;5055131;28;20043;-86
2023/10/14 04:17:30;;;;;;;9.80;1.92;;;10.30;99.90;;;;;;5072820;28;20032;-85
2023/10/14 04:19:57;;;;;;;7.90;2.20;;;10.30;99.90;;;;;;5069088;28;20036;-85
2023/10/14 04:22:31;;;;;;;9.65;2.08;;;10.30;99.90;;;;;;5072068;28;20039;-86
2023/10/14 04:30:32;;;;;;;14.13;2.80;;;10.30;99.90;;;;;;5068418;28;20204;-86
2023/10/14 04:35:32;;;;;;;6.70;1.90;;;10.30;99.90;;;;;;5070987;28;20421;-85
2023/10/14 04:38:01;;;;;;;8.43;1.90;;;10.30;99.90;;;;;;5056352;28;20529;-86
2023/10/14 04:45:52;;;;;;;9.40;2.30;;;10.30;99.90;;;;;;5072740;28;20044;-86
2023/10/14 04:48:28;;;;;;;7.07;1.85;;;10.20;99.90;;;;;;5058839;28;20127;-86
2023/10/14 04:51:00;;;;;;;5.75;1.55;;;10.20;99.90;;;;;;5058562;28;20565;-86
2023/10/14 04:53:26;;;;;;;8.98;2.45;;;10.20;99.90;;;;;;5058679;28;20035;-86
2023/10/14 04:55:55;;;;;;;7.57;2.20;;;10.20;99.90;;;;;;5059762;28;20097;-87
2023/10/14 04:58:25;;;;;;;9.45;1.85;;;10.10;99.90;;;;;;5058692;28;20056;-85
2023/10/14 05:01:00;;;;;;;10.35;2.00;;;10.10;99.90;;;;;;5055939;28;20044;-85
2023/10/14 05:03:29;;;;;;;7.65;2.17;;;10.10;99.90;;;;;;5076357;28;20097;-86
2023/10/14 05:06:14;;;;;;;8.85;2.22;;;10.00;99.90;;;;;;5056546;28;20055;-85
2023/10/14 05:08:47;;;;;;;7.90;2.20;;;10.00;99.90;;;;;;5070593;28;20036;-86
2023/10/14 05:11:21;;;;;;;9.80;2.17;;;9.90;99.90;;;;;;5056588;28;20550;-86
2023/10/14 05:14:06;;;;;;;10.70;2.30;;;9.90;99.90;;;;;;5072663;28;20585;-86
2023/10/14 05:17:02;;;;;;;10.32;1.65;;;9.90;99.90;;;;;;5071018;28;20044;-86
2023/10/14 05:19:43;;;;;;;8.40;1.80;;;9.90;99.90;;;;;;5058713;28;20032;-86
2023/10/14 05:24:45;;;;;;;7.60;2.33;;;9.80;99.90;;;;;;5074512;28;20044;-87
2023/10/14 05:27:11;;;;;;;10.80;2.20;;;9.80;99.90;;;;;;5058267;28;20533;-86
2023/10/14 05:29:37;;;;;;;9.73;2.30;;;9.80;99.90;;;;;;5071366;28;20039;-85
2023/10/14 05:32:15;;;;;;;9.48;1.63;;;9.80;99.90;;;;;;5073402;28;20036;-85
2023/10/14 05:34:43;;;;;;;8.10;1.85;;;9.80;99.90;;;;;;5053900;28;20090;-86
2023/10/14 05:37:12;;;;;;;12.68;2.20;;;9.80;99.90;;;;;;5069603;28;20036;-86
2023/10/14 05:39:41;;;;;;;9.13;1.88;;;9.70;99.90;;;;;;5071663;28;20055;-86
2023/10/14 05:42:20;;;;;;;7.00;1.75;;;9.70;99.90;;;;;;5072811;28;20118;-86
2023/10/14 05:44:57;;;;;;;9.00;2.13;;;9.70;99.90;;;;;;5054947;28;20043;-86
2023/10/14 05:47:29;;;;;;;9.05;2.22;;;9.60;99.90;;;;;;5052879;28;20451;-87
2023/10/14 05:49:54;;;;;;;11.25;2.50;;;9.60;99.90;;;;;;5040232;28;20040;-86
2023/10/14 05:52:26;;;;;;;9.38;1.85;;;9.60;99.90;;;;;;5053521;28;20036;-86
2023/10/14 05:54:52;;;;;;;8.93;2.00;;;9.60;99.90;;;;;;5055398;28;20444;-87
2023/10/14 05:57:17;;;;;;;12.63;1.98;;;9.60;99.90;;;;;;5067324;28;20032;-87
2023/10/14 05:59:43;;;;;;;13.35;2.08;;;9.60;99.90;;;;;;5053225;28;20032;-86
2023/10/14 06:02:12;;;;;;;10.60;2.33;;;9.50;99.90;;;;;;5055271;28;20039;-87
2023/10/14 06:04:42;;;;;;;9.30;2.15;;;9.50;99.90;;;;;;5072948;28;20032;-87
2023/10/14 06:07:08;;;;;;;7.03;2.15;;;9.50;99.90;;;;;;5071764;28;20064;-86
2023/10/14 06:09:36;;;;;;;8.82;2.13;;;9.50;99.90;;;;;;5072294;28;20075;-86
2023/10/14 06:12:05;;;;;;;13.25;2.17;;;9.40;99.90;;;;;;5070375;28;20395;-86
2023/10/14 06:14:34;;;;;;;9.70;2.20;;;9.40;99.90;;;;;;5078800;28;20048;-86
2023/10/14 06:17:00;;;;;;;6.90;1.70;;;9.40;99.90;;;;;;5068873;28;20036;-87
2023/10/14 06:19:25;;;;;;;9.48;2.22;;;9.40;99.90;;;;;;5053776;28;20097;-87
2023/10/14 06:21:51;;;;;;;7.75;1.88;;;9.40;99.90;;;;;;5066398;28;20112;-87
2023/10/14 06:24:17;;;;;;;14.35;2.58;;;9.40;99.90;;;;;;5067321;28;20032;-85
2023/10/14 06:26:43;;;;;;;7.72;2.22;;;9.40;99.90;;;;;;5047353;28;20049;-87
2023/10/14 06:29:09;;;;;;;9.02;2.25;;;9.40;99.90;;;;;;5068716;28;20101;-86
2023/10/14 06:31:40;;;;;;;9.55;1.88;;;9.40;99.90;;;;;;5061428;28;20047;-86
2023/10/14 06:34:09;;;;;;;9.73;2.63;;;9.40;99.90;;;;;;5050836;28;20460;-87
2023/10/14 06:36:35;;;;;;;10.55;2.42;;;9.40;99.90;;;;;;5063902;28;20760;-87
2023/10/14 06:39:13;;;;;;;9.65;2.15;;;9.40;99.90;;;;;;5067628;28;20152;-86
2023/10/14 06:41:43;;;;;;;10.38;2.08;;;9.40;99.90;;;;;;5050552;28;20044;-87
2023/10/14 06:44:15;;;;;;;7.57;2.08;;;9.40;99.90;;;;;;5050296;28;20113;-86
2023/10/14 06:46:44;;;;;;;11.98;2.70;;;9.40;99.90;;;;;;5069330;28;20076;-86
2023/10/14 06:49:16;;;;;;;12.65;2.83;;;9.50;99.90;;;;;;5054181;28;20531;-87
2023/10/14 06:51:42;;;;;;;10.48;2.50;;;9.60;99.90;;;;;;5052098;28;20032;-86
2023/10/14 06:54:09;;;;;;;12.07;2.42;;;9.50;99.90;;;;;;5053056;28;20079;-86
2023/10/14 06:56:40;;;;;;;12.27;2.35;;;9.60;99.90;;;;;;5069473;28;20098;-85
2023/10/14 06:59:06;;;;;;;11.68;2.40;;;9.60;99.90;;;;;;5067422;28;20047;-85
2023/10/14 07:01:33;;;;;;;14.80;3.03;;;9.60;99.90;;;;;;5051715;28;20114;-85
2023/10/14 07:03:59;;;;;;;11.93;2.10;;;9.60;99.90;;;;;;5055811;28;20035;-83
2023/10/14 07:06:26;;;;;;;15.40;2.70;;;9.70;99.90;;;;;;5075643;28;20048;-83
2023/10/14 07:08:52;;;;;;;11.30;1.90;;;9.80;99.90;;;;;;5095751;28;20358;-82
2023/10/14 07:11:18;;;;;;;9.05;2.03;;;9.90;99.90;;;;;;5052234;28;20047;-84
2023/10/14 07:13:46;;;;;;;12.63;2.75;;;9.90;99.90;;;;;;5067780;28;20094;-85
2023/10/14 07:16:11;;;;;;;11.60;2.20;;;10.00;99.90;;;;;;5074731;28;20043;-84
2023/10/14 07:18:38;;;;;;;11.75;2.15;;;10.10;99.90;;;;;;5069817;28;20074;-84
2023/10/14 07:21:08;;;;;;;11.18;3.88;;;10.10;99.90;;;;;;5067629;28;20119;-84
2023/10/14 07:23:34;;;;;;;11.35;2.13;;;10.10;99.90;;;;;;5062165;28;20046;-84
2023/10/14 07:26:13;;;;;;;10.50;2.80;;;10.20;99.90;;;;;;5044955;28;20032;-84
2023/10/14 07:28:42;;;;;;;10.57;2.45;;;10.30;99.90;;;;;;5074581;28;20507;-84
2023/10/14 07:31:12;;;;;;;11.48;2.80;;;10.40;99.90;;;;;;5060154;28;20078;-83
2023/10/14 07:33:39;;;;;;;11.65;2.22;;;10.40;99.90;;;;;;5054160;28;20040;-85
2023/10/14 07:36:11;;;;;;;12.25;3.17;;;10.50;99.90;;;;;;5067534;28;20042;-85
2023/10/14 07:38:37;;;;;;;10.02;1.92;;;10.60;99.90;;;;;;5056938;28;20418;-84
2023/10/14 07:41:05;;;;;;;11.20;2.33;;;10.60;99.90;;;;;;5074634;28;20043;-85
2023/10/14 07:43:33;;;;;;;10.20;2.28;;;10.70;99.90;;;;;;5074744;28;20059;-85
2023/10/14 07:46:00;;;;;;;15.52;3.13;;;10.80;99.90;;;;;;5082951;28;20032;-84
2023/10/14 07:48:26;;;;;;;9.50;2.25;;;11.00;99.90;;;;;;5057542;28;20046;-83
2023/10/14 07:50:56;;;;;;;9.45;2.03;;;11.30;99.90;;;;;;5073660;28;20044;-84
2023/10/14 07:53:25;;;;;;;8.63;2.20;;;11.60;99.90;;;;;;5074087;28;20035;-86
2023/10/14 07:55:56;;;;;;;17.17;2.58;;;11.70;99.90;;;;;;5074381;28;20054;-85
2023/10/14 07:58:26;;;;;;;12.05;2.85;;;11.90;99.90;;;;;;5059468;28;20109;-84
2023/10/14 08:00:53;;;;;;;13.20;2.35;;;12.00;99.90;;;;;;5075940;28;20032;-84
2023/10/14 08:03:21;;;;;;;12.20;2.40;;;12.10;99.90;;;;;;5058289;28;20107;-85
2023/10/14 08:05:53;;;;;;;6.78;2.30;;;12.40;99.90;;;;;;5059471;28;20032;-86
2023/10/14 08:08:20;;;;;;;12.40;2.35;;;12.80;99.90;;;;;;5057667;28;20040;-84
2023/10/14 08:10:51;;;;;;;8.90;2.00;;;13.30;99.90;;;;;;5060657;28;20040;-85
2023/10/14 08:13:21;;;;;;;9.60;2.15;;;13.60;99.90;;;;;;5077141;28;20078;-86
2023/10/14 08:15:50;;;;;;;7.50;1.90;;;14.00;99.90;;;;;;5074649;28;20561;-86
2023/10/14 08:18:16;;;;;;;10.75;2.17;;;14.20;99.90;;;;;;5073864;28;20040;-87
2023/10/14 08:20:43;;;;;;;7.20;2.20;;;14.60;99.90;;;;;;5078151;28;20044;-86
2023/10/14 08:23:10;;;;;;;14.70;2.45;;;14.90;99.90;;;;;;5058207;28;20036;-87
2023/10/14 08:25:42;;;;;;;9.75;2.83;;;15.00;99.90;;;;;;5077926;28;20039;-85
2023/10/14 08:28:11;;;;;;;6.80;2.20;;;15.20;99.90;;;;;;5073702;28;20590;-85
2023/10/14 08:30:47;;;;;;;9.50;2.30;;;15.50;99.90;;;;;;5058034;28;20157;-86
2023/10/14 08:33:13;;;;;;;10.63;2.55;;;15.80;99.90;;;;;;5054997;28;20036;-85
2023/10/14 08:35:44;;;;;;;7.53;1.95;;;15.90;99.90;;;;;;5055348;28;20039;-85
2023/10/14 08:38:17;;;;;;;11.13;2.63;;;16.20;99.90;;;;;;5075454;28;20072;-85
2023/10/14 08:40:44;;;;;;;12.05;2.80;;;16.40;99.90;;;;;;5068209;28;20071;-86
2023/10/14 08:43:16;;;;;;;8.95;2.55;;;16.50;99.90;;;;;;5073476;28;20494;-84
2023/10/14 08:45:47;;;;;;;8.35;2.22;;;16.50;99.90;;;;;;5057112;28;20086;-85
2023/10/14 08:48:15;;;;;;;13.27;2.70;;;16.50;99.90;;;;;;5059479;28;20037;-90
2023/10/14 08:50:42;;;;;;;5.90;2.35;;;16.50;99.90;;;;;;5055732;28;20089;-83
2023/10/14 08:53:21;;;;;;;12.30;2.55;;;16.60;99.90;;;;;;5071677;28;20413;-82
2023/10/14 08:55:48;;;;;;;7.20;2.25;;;16.90;99.90;;;;;;5063304;28;20041;-87
2023/10/14 08:58:14;;;;;;;9.20;2.38;;;17.10;99.90;;;;;;5082511;28;20036;-84
2023/10/14 09:00:44;;;;;;;8.75;2.72;;;17.30;99.90;;;;;;5098561;28;20054;-86
2023/10/14 09:03:11;;;;;;;10.68;2.50;;;17.30;99.90;;;;;;5095288;28;20059;-89
2023/10/14 09:05:44;;;;;;;9.95;3.08;;;17.20;99.90;;;;;;5080710;28;20054;-86
2023/10/14 09:08:19;;;;;;;14.10;2.65;;;17.10;99.90;;;;;;5076647;28;20084;-86
2023/10/14 09:10:45;;;;;;;12.43;2.88;;;16.50;99.90;;;;;;5057675;28;20040;-82
2023/10/14 09:13:13;;;;;;;11.43;2.50;;;15.90;99.90;;;;;;5075653;28;20677;-81
2023/10/14 09:15:42;;;;;;;15.48;3.08;;;15.50;99.90;;;;;;5059094;28;20141;-86
2023/10/14 09:18:32;;;;;;;9.68;2.50;;;15.30;99.90;;;;;;5068641;28;20035;-86
2023/10/14 09:21:00;;;;;;;7.68;1.83;;;15.00;99.90;;;;;;5077788;28;20183;-86
2023/10/14 09:23:31;;;;;;;8.43;2.00;;;14.70;99.90;;;;;;5070948;28;20039;-84
2023/10/14 09:26:01;;;;;;;7.78;1.95;;;15.00;99.90;;;;;;5060241;28;20493;-89
2023/10/14 09:28:29;;;;;;;8.23;2.63;;;15.60;99.90;;;;;;5058436;28;20040;-88
2023/10/14 09:30:57;;;;;;;7.88;2.15;;;15.60;99.90;;;;;;5060550;28;20494;-88
2023/10/14 09:33:35;;;;;;;8.38;2.30;;;15.20;99.90;;;;;;5060488;28;20036;-86
2023/10/14 09:36:04;;;;;;;7.82;2.13;;;14.70;99.90;;;;;;5076595;28;20035;-89
2023/10/14 09:38:32;;;;;;;6.45;1.85;;;14.90;99.90;;;;;;5076477;28;20048;-87
2023/10/14 09:41:02;;;;;;;9.25;2.20;;;15.20;99.90;;;;;;5055317;28;20028;-86
2023/10/14 09:43:29;;;;;;;7.95;1.70;;;15.40;99.90;;;;;;5076388;28;20082;-87
2023/10/14 09:46:08;;;;;;;7.43;1.58;;;15.40;99.90;;;;;;5074764;28;20037;-84
2023/10/14 09:48:35;;;;;;;11.70;2.60;;;15.70;99.90;;;;;;5064386;28;20040;-87
2023/10/14 09:51:03;;;;;;;8.60;1.88;;;16.00;99.90;;;;;;5064582;28;20036;-90
2023/10/14 09:53:32;;;;;;;8.02;1.77;;;16.30;99.90;;;;;;5079492;28;20111;-90
2023/10/14 09:56:06;;;;;;;7.22;2.17;;;16.30;99.90;;;;;;5081281;28;20047;-88
2023/10/14 09:58:34;;;;;;;8.07;1.70;;;16.20;99.90;;;;;;5075474;28;20414;-83
2023/10/14 10:01:16;;;;;;;6.80;2.00;;;16.40;99.90;;;;;;5083183;28;20079;-88
2023/10/14 10:04:08;;;;;;;9.45;2.05;;;16.70;99.90;;;;;;5078320;28;20031;-90
2023/10/14 10:06:58;;;;;;;8.45;1.95;;;16.70;99.90;;;;;;5060658;28;20063;-92
2023/10/14 10:09:40;;;;;;;7.88;1.88;;;16.20;99.90;;;;;;5082991;28;20402;-90
2023/10/14 10:12:10;;;;;;;7.00;1.77;;;15.80;99.90;;;;;;5052709;28;20032;-88
2023/10/14 10:14:42;;;;;;;8.60;2.10;;;15.20;99.90;;;;;;5055884;28;20063;-88
2023/10/14 10:17:11;;;;;;;7.47;1.67;;;15.00;99.90;;;;;;5066316;28;20756;-85
2023/10/14 10:20:08;;;;;;;8.50;1.90;;;14.80;99.90;;;;;;5069655;28;20115;-87
2023/10/14 10:22:45;;;;;;;11.23;1.90;;;14.70;99.90;;;;;;5050459;28;20044;-89
2023/10/14 10:25:16;;;;;;;7.25;1.90;;;14.30;99.90;;;;;;5070688;28;20494;-88
2023/10/14 10:27:42;;;;;;;4.45;1.10;;;14.10;99.90;;;;;;5064079;28;20157;-87
2023/10/14 10:30:13;;;;;;;5.30;1.15;;;13.70;99.90;;;;;;5064362;28;20031;-89
2023/10/14 10:32:41;;;;;;;3.83;0.88;;;13.50;99.90;;;;;;5076338;28;20040;-88
2023/10/14 10:35:07;;;;;;;4.65;1.20;;;13.30;99.90;;;;;;5055278;28;20043;-90
2023/10/14 10:37:47;;;;;;;6.25;1.60;;;13.20;99.90;;;;;;5081456;28;20410;-89
2023/10/14 10:40:22;;;;;;;5.57;1.20;;;13.10;99.90;;;;;;5079962;28;20035;-89
2023/10/14 10:43:04;;;;;;;5.53;1.20;;;13.00;99.90;;;;;;5071920;28;20522;-89
2023/10/14 10:45:33;;;;;;;4.80;1.50;;;13.00;99.90;;;;;;5058368;28;20067;-88
2023/10/14 10:48:03;;;;;;;7.53;1.50;;;13.10;99.90;;;;;;5061469;28;20085;-84
2023/10/14 10:50:38;;;;;;;8.80;1.73;;;13.10;99.90;;;;;;5046632;28;20043;-87
2023/10/14 10:53:07;;;;;;;5.97;1.50;;;13.60;99.90;;;;;;5068794;28;20032;-88
2023/10/14 10:55:40;;;;;;;5.10;1.58;;;14.00;99.90;;;;;;5059108;28;20067;-87
2023/10/14 10:58:08;;;;;;;5.05;1.63;;;14.10;99.90;;;;;;5078605;28;20032;-86
2023/10/14 11:00:34;;;;;;;7.03;1.63;;;13.90;99.90;;;;;;5077761;28;20056;-90
2023/10/14 11:03:02;;;;;;;4.03;1.33;;;13.60;99.90;;;;;;5090228;28;20052;-87
2023/10/14 11:05:33;;;;;;;6.10;1.30;;;13.40;99.90;;;;;;5070326;28;20071;-87
2023/10/14 11:08:01;;;;;;;4.70;1.17;;;13.30;99.90;;;;;;5068984;28;20593;-86
2023/10/14 11:10:31;;;;;;;7.72;1.48;;;13.10;99.90;;;;;;5086636;28;20047;-86
2023/10/14 11:12:58;;;;;;;7.95;1.63;;;13.10;99.90;;;;;;5062568;28;20079;-89
2023/10/14 11:15:26;;;;;;;5.25;1.55;;;13.10;99.90;;;;;;5073681;28;20046;-88
2023/10/14 11:17:52;;;;;;;8.60;1.67;;;13.10;99.90;;;;;;5056182;28;20037;-90
2023/10/14 11:20:20;;;;;;;5.43;1.33;;;13.10;99.90;;;;;;5053279;28;20127;-89
2023/10/14 11:22:46;;;;;;;6.43;1.40;;;13.10;99.90;;;;;;5068647;28;20078;-91
2023/10/14 11:25:13;;;;;;;6.82;1.80;;;13.00;99.90;;;;;;5065153;28;20032;-86
2023/10/14 11:27:41;;;;;;;8.13;1.95;;;13.00;99.90;;;;;;5073186;28;20473;-87
2023/10/14 11:30:11;;;;;;;9.02;1.85;;;13.00;99.90;;;;;;5067914;28;20059;-83
2023/10/14 11:32:36;;;;;;;7.60;1.70;;;13.20;99.90;;;;;;5070826;28;20075;-85
2023/10/14 11:35:03;;;;;;;7.32;1.67;;;13.40;99.90;;;;;;5068869;28;20078;-85
2023/10/14 11:37:36;;;;;;;6.55;1.55;;;13.60;99.90;;;;;;5055683;28;20032;-85
2023/10/14 11:40:13;;;;;;;7.05;1.65;;;13.90;99.90;;;;;;5054550;28;20040;-84
2023/10/14 11:42:41;;;;;;;6.82;1.50;;;14.00;99.90;;;;;;5072157;28;20028;-86
2023/10/14 11:45:07;;;;;;;3.53;1.38;;;14.20;99.90;;;;;;5061099;28;20032;-85
2023/10/14 11:47:37;;;;;;;6.38;1.35;;;14.40;99.90;;;;;;5070414;28;20036;-86
2023/10/14 11:50:11;;;;;;;8.18;1.60;;;14.40;99.90;;;;;;5053415;28;20075;-88
2023/10/14 11:52:42;;;;;;;7.72;1.88;;;14.30;99.90;;;;;;5092666;28;20097;-87
2023/10/14 11:55:14;;;;;;;8.27;1.80;;;14.30;99.90;;;;;;5065110;28;20044;-86
2023/10/14 11:57:44;;;;;;;4.82;1.08;;;14.50;99.90;;;;;;5075143;28;20036;-85
2023/10/14 12:00:17;;;;;;;7.20;1.70;;;14.70;99.90;;;;;;5066118;28;20494;-86
2023/10/14 12:02:44;;;;;;;;;;;14.90;99.90;;;;;;5085355;28;20514;-87
2023/10/14 12:05:16;;;;;;;5.72;1.50;;;15.20;99.90;;;;;;5069697;28;19926;-87
2023/10/14 12:07:43;;;;;;;4.53;1.10;;;15.40;99.90;;;;;;5073266;28;20237;-89
2023/10/14 12:10:09;;;;;;;4.97;1.42;;;15.60;99.90;;;;;;5057600;28;20047;-89
2023/10/14 12:12:39;;;;;;;6.38;1.20;;;15.90;99.90;;;;;;5090692;28;20032;-87
2023/10/14 12:15:09;;;;;;;6.80;1.67;;;16.20;99.90;;;;;;5058851;28;20035;-88
2023/10/14 12:17:36;;;;;;;7.80;1.75;;;16.70;99.90;;;;;;5059816;28;20040;-89
2023/10/14 12:20:11;;;;;;;5.25;1.75;;;17.10;99.90;;;;;;5075084;28;20044;-90
2023/10/14 12:22:41;;;;;;;5.78;1.70;;;17.00;99.90;;;;;;5070424;28;20041;-91
2023/10/14 12:25:08;;;;;;;6.30;1.92;;;17.00;99.90;;;;;;5057989;28;20044;-90
2023/10/14 12:27:35;;;;;;;3.63;1.40;;;16.70;99.90;;;;;;5095708;28;20119;-89
2023/10/14 12:30:07;;;;;;;10.32;1.98;;;16.40;99.90;;;;;;5060103;28;20038;-91
2023/10/14 12:32:36;;;;;;;6.82;1.45;;;16.00;99.90;;;;;;5063216;28;20040;-90
2023/10/14 12:35:11;;;;;;;6.03;1.75;;;15.70;99.90;;;;;;5062062;28;20036;-92
2023/10/14 12:37:40;;;;;;;4.28;1.30;;;15.70;99.90;;;;;;5077765;28;20047;-93
2023/10/14 12:40:23;;;;;;;6.30;1.52;;;16.40;99.90;;;;;;5056477;28;20043;-92
2023/10/14 12:42:49;;;;;;;6.20;1.83;;;16.60;99.90;;;;;;5063848;28;20067;-91
2023/10/14 12:45:23;;;;;;;5.32;1.60;;;17.30;99.90;;;;;;5062577;28;20533;-90
2023/10/14 12:47:49;;;;;;;;;;;17.50;99.90;;;;;;5081573;28;20036;-90
2023/10/14 12:50:23;;;;;;;6.78;2.08;;;17.10;99.90;;;;;;5084282;28;19923;-92
2023/10/14 12:52:53;;;;;;;6.00;1.67;;;16.80;99.90;;;;;;5098243;28;20321;-90
2023/10/14 12:55:31;;;;;;;5.13;1.40;;;16.50;99.90;;;;;;5080422;28;20035;-93
2023/10/14 12:58:01;;;;;;;8.93;1.95;;;16.00;99.90;;;;;;5063067;28;20036;-90
2023/10/14 13:00:31;;;;;;;6.30;1.63;;;15.40;99.90;;;;;;5085987;28;20127;-91
2023/10/14 13:03:09;;;;;;;5.80;1.70;;;15.00;99.90;;;;;;5089205;28;20068;-88
2023/10/14 13:05:35;;;;;;;9.70;1.83;;;14.90;99.90;;;;;;5069140;28;20040;-91
2023/10/14 13:08:02;;;;;;;6.90;1.80;;;15.40;99.90;;;;;;5088246;28;20046;-89
2023/10/14 13:10:32;;;;;;;10.90;2.10;;;16.10;99.90;;;;;;5088088;28;20043;-91
2023/10/14 13:13:00;;;;;;;5.68;1.98;;;16.10;99.90;;;;;;5064835;28;20517;-89
2023/10/14 13:15:30;;;;;;;6.55;1.65;;;16.60;99.90;;;;;;5082568;28;20079;-90
2023/10/14 13:18:00;;;;;;;5.78;1.65;;;17.50;99.90;;;;;;5102568;28;20107;-90
2023/10/14 13:20:30;;;;;;;5.85;1.50;;;18.10;99.90;;;;;;5098644;28;20042;-89
2023/10/14 13:23:03;;;;;;;5.82;1.70;;;19.10;99.90;;;;;;5065878;28;20032;-89
2023/10/14 13:25:30;;;;;;;;;;;19.80;99.90;;;;;;5087007;28;20040;-89
2023/10/14 13:27:55;;;;;;;6.80;1.55;;;19.50;99.90;;;;;;5070569;28;20413;-89
2023/10/14 13:30:24;;;;;;;7.00;1.67;;;19.00;99.90;;;;;;5068232;28;20196;-91
2023/10/14 13:32:58;;;;;;;6.32;2.15;;;18.00;99.90;;;;;;5122748;22;20063;-29
2023/10/14 13:35:24;;;;;;;8.95;2.38;;;17.00;99.90;;;;;;5085959;28;20044;-30
2023/10/14 13:37:50;;;;;;;8.18;2.20;;;16.10;99.90;;;;;;5078024;28;20099;-30
2023/10/14 13:40:23;;;;;;;4.95;1.63;;;15.90;99.90;;;;;;5098758;28;20135;-31
2023/10/14 13:42:51;;;;;;;7.75;1.88;;;16.50;99.90;;;;;;5098523;28;20391;-30
2023/10/14 13:45:19;;;;;;;7.40;1.80;;;17.40;99.90;;;;;;5093512;28;20541;-31